Terminal Aerodrome Forecast
Issued by NWS

Home | Current Version | Previous Version | Text Only | Print | Product List | Glossary On
Versions: 1 2 3 4 5 6 7 8 9 10 11 12 13 14
802
FTUS42 KFFC 251738
TAFPDK
TAF
KPDK 251738Z 2518/2618 13004KT P6SM SCT040
     FM260200 13003KT P6SM SCT250
     FM261000 12003KT P6SM SCT015
     FM261400 13006KT P6SM FEW035
     FM261700 15004KT P6SM VCSH SCT045=

USA.gov is the U.S. government's official web portal to all federal, state and local government web resources and services.